createdAt,value
2023-03-18T00:01:15.275Z,10.45
2023-03-18T00:04:00.677Z,10.38
2023-03-18T00:06:46.169Z,10.32
2023-03-18T00:09:31.636Z,10.10
2023-03-18T00:12:16.963Z,9.98
2023-03-18T00:15:01.898Z,9.88
2023-03-18T00:17:47.683Z,9.83
2023-03-18T00:20:32.936Z,9.77
2023-03-18T00:23:19.005Z,9.74
2023-03-18T00:26:04.760Z,9.72
2023-03-18T00:28:49.811Z,9.67
2023-03-18T00:31:34.812Z,9.65
2023-03-18T00:34:21.811Z,9.63
2023-03-18T00:37:07.140Z,9.57
2023-03-18T00:39:52.066Z,9.54
2023-03-18T00:42:39.471Z,9.50
2023-03-18T00:45:26.014Z,9.49
2023-03-18T00:48:11.040Z,9.51
2023-03-18T00:50:56.623Z,9.47
2023-03-18T00:53:45.395Z,9.49
2023-03-18T00:56:32.117Z,9.64
2023-03-18T00:59:17.464Z,9.60
2023-03-18T01:02:02.869Z,9.49
2023-03-18T01:04:48.118Z,9.44
2023-03-18T01:07:33.647Z,9.37
2023-03-18T01:10:19.387Z,9.36
2023-03-18T01:13:04.528Z,9.39
2023-03-18T01:15:50.719Z,9.36
2023-03-18T01:18:36.806Z,9.41
2023-03-18T01:21:21.935Z,9.34
2023-03-18T01:24:07.463Z,9.38
2023-03-18T01:26:53.174Z,9.29
2023-03-18T01:29:38.418Z,9.25
2023-03-18T01:32:23.453Z,9.18
2023-03-18T01:35:08.814Z,9.17
2023-03-18T01:37:54.410Z,9.18
2023-03-18T01:40:40.057Z,9.23
2023-03-18T01:43:28.960Z,9.14
2023-03-18T01:46:36.909Z,9.13
2023-03-18T01:49:27.825Z,9.08
2023-03-18T01:52:27.140Z,9.09
2023-03-18T01:55:17.357Z,9.10
2023-03-18T01:58:08.339Z,9.12
2023-03-18T02:01:21.647Z,9.13
2023-03-18T02:04:09.022Z,9.14
2023-03-18T02:06:54.208Z,9.13
2023-03-18T02:09:39.213Z,9.13
2023-03-18T02:12:29.943Z,9.14
2023-03-18T02:15:18.472Z,9.13
2023-03-18T02:18:11.871Z,9.12
2023-03-18T02:21:35.446Z,9.18
2023-03-18T02:24:35.580Z,9.19
2023-03-18T02:27:28.136Z,9.20
2023-03-18T02:30:18.542Z,9.19
2023-03-18T02:33:04.688Z,9.22
2023-03-18T02:35:56.871Z,9.16
2023-03-18T02:38:43.585Z,9.10
2023-03-18T02:41:32.064Z,9.08
2023-03-18T02:44:19.318Z,9.11
2023-03-18T02:47:11.238Z,9.10
2023-03-18T02:49:56.624Z,9.10
2023-03-18T02:52:42.300Z,9.25
2023-03-18T02:55:27.344Z,9.23
2023-03-18T02:58:12.550Z,9.31
2023-03-18T03:00:57.684Z,9.17
2023-03-18T03:03:42.768Z,9.15
2023-03-18T03:06:28.332Z,9.09
2023-03-18T03:09:16.371Z,9.11
2023-03-18T03:12:01.779Z,9.13
2023-03-18T03:14:46.838Z,9.10
2023-03-18T03:17:31.703Z,9.14
2023-03-18T03:20:16.779Z,9.21
2023-03-18T03:23:03.918Z,9.18
2023-03-18T03:25:49.279Z,9.35
2023-03-18T03:28:34.693Z,9.09
2023-03-18T03:31:20.150Z,9.14
2023-03-18T03:34:05.495Z,9.11
2023-03-18T03:36:50.442Z,9.12
2023-03-18T03:39:35.878Z,9.04
2023-03-18T03:42:21.325Z,9.10
2023-03-18T03:45:08.249Z,9.12
2023-03-18T03:47:53.440Z,8.98
2023-03-18T03:50:39.342Z,8.92
2023-03-18T03:53:26.522Z,8.92
2023-03-18T03:56:11.673Z,8.93
2023-03-18T03:58:56.833Z,9.07
2023-03-18T04:01:41.712Z,8.95
2023-03-18T04:04:27.227Z,8.85
2023-03-18T04:07:13.549Z,8.81
2023-03-18T04:09:58.836Z,8.83
2023-03-18T04:12:44.889Z,8.57
2023-03-18T04:15:30.369Z,8.48
2023-03-18T04:18:15.492Z,8.57
2023-03-18T04:21:00.831Z,8.48
2023-03-18T04:23:46.109Z,8.55
2023-03-18T04:26:31.442Z,8.43
2023-03-18T04:29:16.504Z,8.51
2023-03-18T04:32:01.883Z,8.57
2023-03-18T04:34:46.950Z,8.73
2023-03-18T04:37:32.299Z,8.69
2023-03-18T04:40:17.337Z,8.70
2023-03-18T04:43:02.514Z,8.71
2023-03-18T04:45:47.831Z,8.67
2023-03-18T04:48:33.136Z,8.77
2023-03-18T04:51:18.809Z,8.74
2023-03-18T04:54:04.210Z,8.69
2023-03-18T04:56:49.452Z,8.78
2023-03-18T04:59:34.766Z,8.86
2023-03-18T05:02:20.323Z,8.90
2023-03-18T05:05:05.918Z,8.93
2023-03-18T05:07:51.029Z,9.00
2023-03-18T05:10:37.060Z,9.11
2023-03-18T05:13:22.190Z,9.06
2023-03-18T05:16:07.781Z,9.06
2023-03-18T05:18:52.982Z,9.14
2023-03-18T05:21:38.345Z,9.13
2023-03-18T05:24:23.603Z,9.10
2023-03-18T05:27:09.912Z,9.07
2023-03-18T05:29:56.522Z,9.05
2023-03-18T05:32:42.576Z,9.10
2023-03-18T05:35:27.887Z,9.06
2023-03-18T05:38:12.877Z,9.15
2023-03-18T05:40:57.789Z,9.21
2023-03-18T05:43:43.244Z,9.13
2023-03-18T05:46:28.757Z,9.06
2023-03-18T05:49:13.753Z,9.07
2023-03-18T05:51:58.686Z,9.12
2023-03-18T05:54:44.016Z,9.16
2023-03-18T05:57:28.900Z,9.19
2023-03-18T06:00:15.107Z,9.19
2023-03-18T06:03:01.291Z,9.20
2023-03-18T06:05:46.516Z,9.37
2023-03-18T06:08:32.032Z,9.46
2023-03-18T06:11:17.089Z,9.49
2023-03-18T06:14:03.237Z,9.66
2023-03-18T06:16:49.066Z,9.80
2023-03-18T06:19:34.516Z,9.72
2023-03-18T06:22:19.787Z,9.78
2023-03-18T06:25:06.482Z,9.84
2023-03-18T06:27:51.779Z,9.83
2023-03-18T06:30:36.895Z,9.89
2023-03-18T06:33:23.491Z,9.86
2023-03-18T06:36:09.498Z,9.88
2023-03-18T06:38:55.193Z,9.93
2023-03-18T06:41:40.669Z,9.96
2023-03-18T06:44:26.195Z,10.02
2023-03-18T06:47:11.019Z,10.19
2023-03-18T06:49:56.296Z,10.27
2023-03-18T06:52:42.028Z,10.28
2023-03-18T06:55:27.191Z,10.29
2023-03-18T06:58:12.569Z,10.32
2023-03-18T07:00:58.536Z,10.39
2023-03-18T07:03:43.619Z,10.75
2023-03-18T07:06:29.525Z,10.74
2023-03-18T07:09:14.455Z,10.63
2023-03-18T07:12:00.522Z,10.55
2023-03-18T07:14:45.827Z,10.56
2023-03-18T07:17:30.887Z,10.66
2023-03-18T07:20:16.636Z,10.71
2023-03-18T07:23:02.837Z,10.75
2023-03-18T07:25:47.997Z,10.83
2023-03-18T07:28:32.962Z,10.83
2023-03-18T07:31:17.993Z,10.86
2023-03-18T07:34:03.032Z,10.91
2023-03-18T07:36:47.817Z,10.95
2023-03-18T07:39:32.872Z,11.03
2023-03-18T07:42:17.781Z,11.10
2023-03-18T07:45:03.828Z,11.21
2023-03-18T07:47:48.975Z,11.41
2023-03-18T07:50:34.598Z,11.41
2023-03-18T07:53:19.688Z,11.37
2023-03-18T07:56:05.281Z,11.39
2023-03-18T07:58:50.835Z,11.41
2023-03-18T08:01:35.952Z,11.47
2023-03-18T08:04:20.855Z,11.47
2023-03-18T08:07:06.315Z,11.43
2023-03-18T08:09:51.407Z,11.48
2023-03-18T08:12:51.272Z,11.58
2023-03-18T08:15:37.614Z,11.53
2023-03-18T08:18:22.958Z,11.56
2023-03-18T08:21:08.502Z,11.62
2023-03-18T08:23:53.802Z,11.65
2023-03-18T08:26:39.308Z,11.68
2023-03-18T08:29:24.113Z,11.77
2023-03-18T08:32:09.991Z,11.80
2023-03-18T08:34:55.178Z,11.76
2023-03-18T08:37:40.575Z,11.83
2023-03-18T08:40:25.595Z,11.90
2023-03-18T08:43:10.559Z,11.80
2023-03-18T08:45:56.464Z,11.76
2023-03-18T08:48:41.745Z,11.74
2023-03-18T08:51:27.278Z,11.75
2023-03-18T08:54:13.427Z,11.75
2023-03-18T08:56:58.651Z,11.70
2023-03-18T08:59:43.624Z,11.73
2023-03-18T09:02:28.610Z,11.67
2023-03-18T09:05:13.728Z,11.65
2023-03-18T09:07:59.200Z,11.68
2023-03-18T09:10:48.257Z,11.70
2023-03-18T09:13:33.639Z,11.79
2023-03-18T09:16:18.522Z,11.87
2023-03-18T09:19:03.944Z,12.05
2023-03-18T09:21:49.384Z,12.23
2023-03-18T09:24:34.355Z,12.58
2023-03-18T09:27:19.277Z,12.60
2023-03-18T09:30:06.928Z,12.90
2023-03-18T09:32:52.081Z,12.74
2023-03-18T09:35:38.490Z,12.81
2023-03-18T09:38:23.938Z,12.94
2023-03-18T09:41:24.098Z,12.76
2023-03-18T09:44:08.762Z,12.67
2023-03-18T09:47:26.382Z,12.74
2023-03-18T09:50:23.642Z,12.82
2023-03-18T09:53:19.646Z,12.93
2023-03-18T09:56:07.346Z,13.04
2023-03-18T09:59:03.645Z,12.87
2023-03-18T10:01:53.650Z,12.81
2023-03-18T10:04:44.668Z,12.87
2023-03-18T10:07:36.939Z,12.79
2023-03-18T10:10:34.806Z,13.00
2023-03-18T10:13:28.159Z,13.12
2023-03-18T10:16:21.646Z,13.25
2023-03-18T10:19:08.139Z,13.20
2023-03-18T10:22:02.552Z,13.33
2023-03-18T10:25:00.770Z,13.16
2023-03-18T10:28:04.371Z,13.24
2023-03-18T10:31:07.744Z,13.30
2023-03-18T10:34:06.709Z,13.35
2023-03-18T10:37:38.504Z,13.53
2023-03-18T10:40:24.453Z,13.47
2023-03-18T10:43:18.638Z,13.48
2023-03-18T10:46:06.101Z,13.55
2023-03-18T10:49:00.318Z,13.54
2023-03-18T10:51:59.114Z,13.37
2023-03-18T10:54:46.014Z,13.51
2023-03-18T10:57:31.028Z,13.50
2023-03-18T11:00:34.240Z,13.62
2023-03-18T11:03:43.894Z,13.98
2023-03-18T11:06:55.009Z,13.98
2023-03-18T11:09:40.421Z,13.84
2023-03-18T11:12:29.560Z,13.85
2023-03-18T11:15:19.818Z,14.04
2023-03-18T11:18:05.418Z,14.26
2023-03-18T11:20:59.025Z,14.33
2023-03-18T11:23:58.178Z,14.66
2023-03-18T11:27:15.321Z,14.99
2023-03-18T11:30:12.073Z,14.57
2023-03-18T11:33:04.448Z,14.50
2023-03-18T11:35:54.117Z,14.60
2023-03-18T11:38:39.571Z,14.49
2023-03-18T11:41:27.298Z,15.17
2023-03-18T11:44:18.477Z,15.82
2023-03-18T11:47:21.058Z,16.12
2023-03-18T11:50:10.463Z,15.89
2023-03-18T11:53:04.017Z,16.29
2023-03-18T11:56:05.022Z,16.03
2023-03-18T11:59:08.211Z,15.94
2023-03-18T12:01:56.235Z,16.37
2023-03-18T12:04:56.712Z,16.29
2023-03-18T12:07:52.366Z,15.14
2023-03-18T12:10:41.625Z,14.97
2023-03-18T12:13:56.700Z,15.66
2023-03-18T12:17:16.836Z,15.75
2023-03-18T12:20:16.462Z,15.95
2023-03-18T12:23:13.094Z,16.13
2023-03-18T12:26:15.121Z,16.11
2023-03-18T12:29:06.354Z,16.07
2023-03-18T12:32:02.682Z,16.12
2023-03-18T12:34:47.752Z,16.22
2023-03-18T12:38:02.132Z,16.97
2023-03-18T12:40:56.737Z,17.43
2023-03-18T12:43:49.514Z,16.98
2023-03-18T12:46:59.927Z,17.32
2023-03-18T12:50:08.511Z,17.22
2023-03-18T12:53:02.524Z,16.74
2023-03-18T12:55:56.438Z,15.98
2023-03-18T12:58:47.451Z,16.35
2023-03-18T13:02:02.708Z,16.25
2023-03-18T13:04:55.552Z,16.38
2023-03-18T13:07:47.463Z,17.17
2023-03-18T13:10:36.153Z,18.15
2023-03-18T13:13:23.099Z,18.45
2023-03-18T13:16:08.490Z,18.26
2023-03-18T13:18:57.539Z,16.86
2023-03-18T13:21:47.959Z,16.32
2023-03-18T13:24:58.668Z,16.32
2023-03-18T13:27:50.086Z,16.68
2023-03-18T13:31:00.538Z,17.12
2023-03-18T13:33:55.049Z,17.04
2023-03-18T13:36:46.458Z,16.38
2023-03-18T13:39:52.873Z,15.53
2023-03-18T13:42:40.422Z,15.32
2023-03-18T13:45:34.132Z,15.64
2023-03-18T13:48:32.155Z,16.47
2023-03-18T13:51:40.185Z,16.48
2023-03-18T13:54:34.900Z,16.25
2023-03-18T13:57:29.035Z,16.02
2023-03-18T14:00:38.808Z,15.94
2023-03-18T14:03:28.167Z,15.83
2023-03-18T14:06:44.893Z,15.68
2023-03-18T14:09:30.235Z,15.69
2023-03-18T14:12:29.473Z,16.00
2023-03-18T14:15:37.271Z,15.78
2023-03-18T14:18:27.468Z,15.85
2023-03-18T14:21:24.349Z,16.03
2023-03-18T14:24:13.667Z,15.97
2023-03-18T14:26:58.599Z,16.02
2023-03-18T14:29:46.420Z,16.18
2023-03-18T14:32:34.398Z,16.03
2023-03-18T14:35:29.050Z,15.98
2023-03-18T14:38:23.328Z,16.08
2023-03-18T14:41:29.460Z,16.10
2023-03-18T14:44:32.628Z,16.16
2023-03-18T14:47:38.300Z,16.33
2023-03-18T14:50:27.426Z,16.40
2023-03-18T14:53:19.253Z,16.40
2023-03-18T14:56:05.572Z,16.54
2023-03-18T14:58:55.374Z,16.75
2023-03-18T15:01:44.750Z,16.44
2023-03-18T15:04:30.225Z,16.78
2023-03-18T15:07:15.961Z,16.72
2023-03-18T15:10:04.463Z,16.85
2023-03-18T15:13:00.454Z,16.51
2023-03-18T15:15:46.379Z,16.53
2023-03-18T15:18:35.021Z,16.65
2023-03-18T15:21:24.767Z,16.98
2023-03-18T15:24:15.502Z,16.98
2023-03-18T15:27:14.398Z,17.25
2023-03-18T15:30:03.597Z,17.00
2023-03-18T15:32:49.043Z,16.66
2023-03-18T15:35:35.461Z,16.55
2023-03-18T15:38:26.754Z,16.52
2023-03-18T15:41:12.333Z,16.53
2023-03-18T15:43:57.446Z,16.73
2023-03-18T15:46:46.487Z,16.56
2023-03-18T15:49:31.505Z,16.50
2023-03-18T15:52:17.036Z,16.52
2023-03-18T15:55:03.331Z,16.55
2023-03-18T15:57:48.859Z,16.51
2023-03-18T16:00:34.283Z,16.43
2023-03-18T16:03:25.717Z,16.56
2023-03-18T16:06:10.738Z,16.63
2023-03-18T16:08:56.059Z,16.41
2023-03-18T16:11:42.185Z,16.35
2023-03-18T16:14:41.942Z,16.46
2023-03-18T16:17:27.371Z,16.39
2023-03-18T16:20:17.716Z,16.24
2023-03-18T16:23:02.778Z,16.18
2023-03-18T16:25:51.823Z,16.10
2023-03-18T16:28:37.242Z,16.05
2023-03-18T16:31:22.136Z,16.02
2023-03-18T16:34:17.899Z,15.98
2023-03-18T16:37:03.553Z,15.84
2023-03-18T16:39:49.140Z,15.87
2023-03-18T16:42:34.362Z,15.73
2023-03-18T16:45:30.481Z,15.78
2023-03-18T16:48:19.566Z,15.75
2023-03-18T16:51:04.720Z,15.74
2023-03-18T16:53:49.721Z,15.73
2023-03-18T16:56:35.206Z,15.75
2023-03-18T16:59:20.752Z,15.88
2023-03-18T17:02:30.737Z,15.81
2023-03-18T17:05:16.104Z,15.86
2023-03-18T17:08:01.291Z,15.81
2023-03-18T17:10:49.672Z,15.67
2023-03-18T17:13:35.542Z,15.45
2023-03-18T17:16:20.912Z,15.19
2023-03-18T17:19:13.647Z,14.92
2023-03-18T17:21:59.046Z,14.18
2023-03-18T17:24:43.819Z,14.06
2023-03-18T17:27:33.699Z,13.10
2023-03-18T17:30:40.499Z,12.97
2023-03-18T17:33:28.543Z,13.20
2023-03-18T17:36:13.588Z,13.31
2023-03-18T17:38:58.494Z,13.40
2023-03-18T17:41:43.885Z,13.43
2023-03-18T17:44:30.228Z,13.41
2023-03-18T17:47:15.686Z,13.30
2023-03-18T17:50:01.001Z,13.24
2023-03-18T17:52:49.612Z,13.21
2023-03-18T17:55:35.277Z,13.05
2023-03-18T17:58:22.654Z,13.16
2023-03-18T18:01:14.009Z,13.17
2023-03-18T18:03:59.881Z,12.88
2023-03-18T18:06:48.126Z,12.94
2023-03-18T18:09:34.058Z,12.88
2023-03-18T18:12:23.965Z,12.81
2023-03-18T18:15:25.263Z,12.82
2023-03-18T18:18:21.871Z,12.59
2023-03-18T18:21:13.930Z,12.63
2023-03-18T18:23:59.097Z,12.59
2023-03-18T18:26:44.373Z,12.54
2023-03-18T18:29:29.173Z,12.62
2023-03-18T18:32:14.417Z,12.57
2023-03-18T18:35:00.005Z,12.70
2023-03-18T18:37:46.862Z,12.61
2023-03-18T18:40:31.645Z,12.59
2023-03-18T18:43:17.188Z,12.53
2023-03-18T18:46:02.329Z,12.47
2023-03-18T18:48:48.180Z,12.36
2023-03-18T18:51:33.512Z,12.34
2023-03-18T18:54:19.100Z,12.38
2023-03-18T18:57:04.248Z,12.38
2023-03-18T18:59:49.206Z,12.21
2023-03-18T19:02:35.473Z,12.13
2023-03-18T19:05:20.387Z,12.25
2023-03-18T19:08:05.896Z,12.34
2023-03-18T19:10:55.644Z,12.19
2023-03-18T19:13:40.978Z,12.10
2023-03-18T19:16:34.120Z,12.09
2023-03-18T19:19:27.251Z,12.09
2023-03-18T19:22:14.606Z,12.06
2023-03-18T19:24:59.521Z,11.91
2023-03-18T19:27:44.615Z,11.81
2023-03-18T19:30:29.689Z,11.83
2023-03-18T19:33:16.780Z,12.00
2023-03-18T19:36:08.272Z,11.98
2023-03-18T19:38:56.745Z,11.63
2023-03-18T19:41:42.960Z,11.15
2023-03-18T19:44:28.394Z,10.98
2023-03-18T19:47:28.065Z,11.00
2023-03-18T19:50:18.426Z,11.05
2023-03-18T19:53:10.660Z,11.05
2023-03-18T19:55:55.963Z,10.97
2023-03-18T19:58:41.291Z,11.01
2023-03-18T20:01:27.284Z,10.89
2023-03-18T20:04:15.833Z,10.76
2023-03-18T20:07:01.116Z,10.84
2023-03-18T20:09:46.439Z,10.96
2023-03-18T20:12:40.095Z,10.69
2023-03-18T20:15:26.036Z,10.96
2023-03-18T20:18:17.036Z,10.37
2023-03-18T20:21:02.252Z,10.48
2023-03-18T20:23:47.820Z,10.64
2023-03-18T20:26:33.152Z,10.51
2023-03-18T20:29:20.657Z,10.65
2023-03-18T20:32:06.168Z,10.52
2023-03-18T20:34:51.092Z,10.43
2023-03-18T20:37:36.175Z,9.98
2023-03-18T20:40:29.587Z,10.20
2023-03-18T20:43:19.076Z,10.22
2023-03-18T20:46:04.214Z,10.08
2023-03-18T20:48:49.457Z,10.04
2023-03-18T20:51:36.664Z,9.94
2023-03-18T20:54:27.515Z,9.96
2023-03-18T20:57:12.734Z,10.08
2023-03-18T20:59:57.520Z,9.97
2023-03-18T21:02:42.508Z,9.49
2023-03-18T21:05:27.765Z,9.56
2023-03-18T21:08:13.136Z,9.69
2023-03-18T21:11:01.693Z,9.79
2023-03-18T21:13:48.099Z,10.06
2023-03-18T21:16:34.294Z,10.11
2023-03-18T21:19:20.028Z,10.28
2023-03-18T21:22:04.995Z,10.23
2023-03-18T21:24:50.431Z,10.26
2023-03-18T21:27:35.358Z,10.31
2023-03-18T21:30:22.172Z,10.26
2023-03-18T21:33:25.366Z,10.18
2023-03-18T21:36:11.159Z,10.20
2023-03-18T21:38:56.494Z,10.21
2023-03-18T21:41:41.763Z,10.18
2023-03-18T21:44:27.038Z,10.13
2023-03-18T21:47:17.064Z,10.31
2023-03-18T21:50:02.284Z,10.31
2023-03-18T21:52:47.782Z,9.92
2023-03-18T21:55:33.356Z,9.66
2023-03-18T21:58:25.141Z,10.13
2023-03-18T22:01:19.525Z,10.13
2023-03-18T22:04:04.897Z,10.10
2023-03-18T22:06:50.284Z,10.17
2023-03-18T22:09:35.082Z,10.15
2023-03-18T22:12:27.944Z,10.16
2023-03-18T22:15:33.466Z,9.97
2023-03-18T22:18:19.148Z,9.93
2023-03-18T22:21:11.835Z,9.92
2023-03-18T22:23:57.057Z,9.91
2023-03-18T22:26:42.202Z,10.03
2023-03-18T22:29:27.562Z,9.92
2023-03-18T22:32:23.264Z,9.99
2023-03-18T22:35:17.392Z,10.01
2023-03-18T22:38:02.173Z,10.00
2023-03-18T22:40:52.698Z,9.94
2023-03-18T22:43:38.175Z,9.87
2023-03-18T22:46:23.554Z,9.94
2023-03-18T22:49:09.063Z,9.87
2023-03-18T22:51:53.855Z,9.88
2023-03-18T22:54:39.295Z,9.93
2023-03-18T22:57:25.753Z,9.90
2023-03-18T23:00:38.007Z,10.02
2023-03-18T23:03:29.567Z,9.95
2023-03-18T23:06:18.149Z,9.93
2023-03-18T23:09:03.351Z,9.86
2023-03-18T23:11:48.540Z,9.89
2023-03-18T23:14:33.872Z,9.88
2023-03-18T23:17:21.521Z,9.93
2023-03-18T23:20:06.813Z,9.89
2023-03-18T23:22:52.035Z,9.81
2023-03-18T23:25:37.405Z,9.69
2023-03-18T23:28:22.938Z,9.74
2023-03-18T23:31:08.452Z,9.79
2023-03-18T23:33:53.717Z,9.80
2023-03-18T23:36:38.580Z,9.79
2023-03-18T23:39:23.948Z,9.74
2023-03-18T23:42:10.772Z,9.69
2023-03-18T23:44:55.797Z,9.75
2023-03-18T23:47:41.362Z,9.64
2023-03-18T23:50:26.465Z,9.53
2023-03-18T23:53:11.410Z,9.61
2023-03-18T23:55:56.218Z,9.51
2023-03-18T23:58:41.163Z,9.42
